createdAt,value
2022-09-28T00:00:14.950Z,8.80
2022-09-28T00:02:44.406Z,8.90
2022-09-28T00:05:13.139Z,8.90
2022-09-28T00:07:41.993Z,8.90
2022-09-28T00:10:10.991Z,9.00
2022-09-28T00:12:39.207Z,9.00
2022-09-28T00:15:08.525Z,9.00
2022-09-28T00:17:36.727Z,9.00
2022-09-28T00:20:06.998Z,8.90
2022-09-28T00:22:34.928Z,8.90
2022-09-28T00:25:02.854Z,9.00
2022-09-28T00:27:30.846Z,9.00
2022-09-28T00:29:59.938Z,9.10
2022-09-28T00:32:28.536Z,9.20
2022-09-28T00:34:56.561Z,9.10
2022-09-28T00:37:25.941Z,9.10
2022-09-28T00:39:53.941Z,9.10
2022-09-28T00:42:24.782Z,9.20
2022-09-28T00:44:53.677Z,9.20
2022-09-28T00:47:51.480Z,9.10
2022-09-28T00:50:28.211Z,9.10
2022-09-28T00:53:02.874Z,9.30
2022-09-28T00:55:38.922Z,9.30
2022-09-28T00:58:10.033Z,9.40
2022-09-28T01:00:40.564Z,9.30
2022-09-28T01:03:09.912Z,9.20
2022-09-28T01:05:40.699Z,9.30
2022-09-28T01:08:11.234Z,9.30
2022-09-28T01:10:43.452Z,9.50
2022-09-28T01:13:12.288Z,9.40
2022-09-28T01:15:49.715Z,9.40
2022-09-28T01:18:26.712Z,9.40
2022-09-28T01:21:02.318Z,9.40
2022-09-28T01:24:30.093Z,9.50
2022-09-28T01:27:14.913Z,9.50
2022-09-28T01:29:56.387Z,9.50
2022-09-28T01:32:35.886Z,9.40
2022-09-28T01:35:09.939Z,9.30
2022-09-28T01:37:47.753Z,9.40
2022-09-28T01:40:17.833Z,9.40
2022-09-28T01:42:51.161Z,9.50
2022-09-28T01:45:25.347Z,9.70
2022-09-28T01:47:58.176Z,9.80
2022-09-28T01:50:29.863Z,9.70
2022-09-28T01:53:05.434Z,9.70
2022-09-28T01:55:37.750Z,9.60
2022-09-28T01:58:13.158Z,9.50
2022-09-28T02:00:45.728Z,9.70
2022-09-28T02:03:17.695Z,9.70
2022-09-28T02:05:52.400Z,9.60
2022-09-28T02:08:26.841Z,9.70
2022-09-28T02:11:01.834Z,9.60
2022-09-28T02:13:36.885Z,9.60
2022-09-28T02:16:10.830Z,9.80
2022-09-28T02:18:39.506Z,9.70
2022-09-28T02:21:14.960Z,9.80
2022-09-28T02:23:53.376Z,9.80
2022-09-28T02:26:27.947Z,9.80
2022-09-28T02:28:57.390Z,9.70
2022-09-28T02:31:25.561Z,9.70
2022-09-28T02:33:56.235Z,9.60
2022-09-28T02:36:26.469Z,9.60
2022-09-28T02:38:55.282Z,9.50
2022-09-28T02:41:39.719Z,9.50
2022-09-28T02:44:22.417Z,9.50
2022-09-28T02:47:00.696Z,9.50
2022-09-28T02:49:35.951Z,9.40
2022-09-28T02:52:21.808Z,9.40
2022-09-28T02:55:22.851Z,9.30
2022-09-28T02:58:15.864Z,9.20
2022-09-28T03:00:51.416Z,9.30
2022-09-28T03:03:24.869Z,9.30
2022-09-28T03:06:00.930Z,9.30
2022-09-28T03:08:35.119Z,9.30
2022-09-28T03:11:08.212Z,9.20
2022-09-28T03:13:37.175Z,9.30
2022-09-28T03:16:11.899Z,9.20
2022-09-28T03:18:40.036Z,9.30
2022-09-28T03:21:08.734Z,9.30
2022-09-28T03:23:36.661Z,9.20
2022-09-28T03:26:04.839Z,9.30
2022-09-28T03:28:34.546Z,9.20
2022-09-28T03:31:02.703Z,9.10
2022-09-28T03:33:32.130Z,9.00
2022-09-28T03:36:00.158Z,9.00
2022-09-28T03:38:28.204Z,9.00
2022-09-28T03:40:59.513Z,9.00
2022-09-28T03:43:28.736Z,9.00
2022-09-28T03:45:58.588Z,9.10
2022-09-28T03:48:32.366Z,9.10
2022-09-28T03:51:05.328Z,9.10
2022-09-28T03:53:34.871Z,9.20
2022-09-28T03:56:07.598Z,9.10
2022-09-28T03:58:35.851Z,9.00
2022-09-28T04:01:05.835Z,8.90
2022-09-28T04:03:34.190Z,9.00
2022-09-28T04:06:06.529Z,8.90
2022-09-28T04:08:34.692Z,8.90
2022-09-28T04:11:03.224Z,8.90
2022-09-28T04:13:32.686Z,8.70
2022-09-28T04:16:02.785Z,8.60
2022-09-28T04:18:31.231Z,8.50
2022-09-28T04:21:06.537Z,8.60
2022-09-28T04:23:35.751Z,8.50
2022-09-28T04:26:03.997Z,8.50
2022-09-28T04:28:49.309Z,8.50
2022-09-28T04:31:20.787Z,8.40
2022-09-28T04:33:48.863Z,8.40
2022-09-28T04:36:22.332Z,8.50
2022-09-28T04:38:53.763Z,8.50
2022-09-28T04:41:22.825Z,8.50
2022-09-28T04:43:51.233Z,8.40
2022-09-28T04:46:20.150Z,8.40
2022-09-28T04:48:48.254Z,8.60
2022-09-28T04:51:17.757Z,8.60
2022-09-28T04:53:45.767Z,8.60
2022-09-28T04:56:15.695Z,8.70
2022-09-28T04:58:43.721Z,8.70
2022-09-28T05:01:15.078Z,8.70
2022-09-28T05:03:43.560Z,8.60
2022-09-28T05:06:15.883Z,8.60
2022-09-28T05:08:46.736Z,8.60
2022-09-28T05:11:15.661Z,8.60
2022-09-28T05:13:46.086Z,8.60
2022-09-28T05:16:16.176Z,8.50
2022-09-28T05:18:45.933Z,8.40
2022-09-28T05:21:19.487Z,8.30
2022-09-28T05:23:49.167Z,8.10
2022-09-28T05:26:20.320Z,8.00
2022-09-28T05:28:48.414Z,8.10
2022-09-28T05:31:16.401Z,7.90
2022-09-28T05:33:44.519Z,7.90
2022-09-28T05:36:12.486Z,7.80
2022-09-28T05:38:41.807Z,7.70
2022-09-28T05:41:11.438Z,7.50
2022-09-28T05:43:39.647Z,7.60
2022-09-28T05:46:08.132Z,7.50
2022-09-28T05:48:36.306Z,7.50
2022-09-28T05:51:04.390Z,7.40
2022-09-28T05:53:32.398Z,7.60
2022-09-28T05:56:00.714Z,7.50
2022-09-28T05:58:30.341Z,7.50
2022-09-28T06:00:59.150Z,7.50
2022-09-28T06:03:29.953Z,7.50
2022-09-28T06:05:58.919Z,7.50
2022-09-28T06:08:26.949Z,7.40
2022-09-28T06:10:54.996Z,7.30
2022-09-28T06:13:22.975Z,7.40
2022-09-28T06:15:52.297Z,7.40
2022-09-28T06:18:20.268Z,7.30
2022-09-28T06:20:48.253Z,7.50
2022-09-28T06:23:16.318Z,7.70
2022-09-28T06:25:44.486Z,7.70
2022-09-28T06:28:15.147Z,7.60
2022-09-28T06:30:45.031Z,7.60
2022-09-28T06:33:16.286Z,7.70
2022-09-28T06:35:47.788Z,7.80
2022-09-28T06:38:15.760Z,7.80
2022-09-28T06:40:43.820Z,8.00
2022-09-28T06:43:15.061Z,8.10
2022-09-28T06:45:44.323Z,8.20
2022-09-28T06:48:14.987Z,8.40
2022-09-28T06:50:43.579Z,8.40
2022-09-28T06:53:14.550Z,8.80
2022-09-28T06:55:45.959Z,9.50
2022-09-28T06:58:18.046Z,10.60
2022-09-28T07:00:46.298Z,12.20
2022-09-28T07:03:18.507Z,13.30
2022-09-28T07:05:49.724Z,14.40
2022-09-28T07:08:18.723Z,15.20
2022-09-28T07:10:49.018Z,15.50
2022-09-28T07:13:42.798Z,15.60
2022-09-28T07:16:07.123Z,14.60
2022-09-28T07:18:39.139Z,14.50
2022-09-28T07:21:08.098Z,13.90
2022-09-28T07:23:49.541Z,14.10
2022-09-28T07:26:23.810Z,14.50
2022-09-28T07:28:52.807Z,15.50
2022-09-28T07:31:20.853Z,16.10
2022-09-28T07:33:53.770Z,16.80
2022-09-28T07:36:22.599Z,17.10
2022-09-28T07:38:50.842Z,17.20
2022-09-28T07:41:22.399Z,17.00
2022-09-28T07:43:50.847Z,16.90
2022-09-28T07:46:22.159Z,15.80
2022-09-28T07:48:51.669Z,16.00
2022-09-28T07:51:21.294Z,16.80
2022-09-28T07:53:54.078Z,17.40
2022-09-28T07:56:22.016Z,17.80
2022-09-28T07:58:50.269Z,17.60
2022-09-28T08:01:19.172Z,17.40
2022-09-28T08:03:48.503Z,16.60
2022-09-28T08:06:17.977Z,16.80
2022-09-28T08:08:47.380Z,17.00
2022-09-28T08:11:17.751Z,16.90
2022-09-28T08:13:47.340Z,17.00
2022-09-28T08:16:15.494Z,16.80
2022-09-28T08:18:43.516Z,17.00
2022-09-28T08:21:29.551Z,17.60
2022-09-28T08:23:58.853Z,17.80
2022-09-28T08:26:26.836Z,18.60
2022-09-28T08:28:54.827Z,18.10
2022-09-28T08:31:22.832Z,16.90
2022-09-28T08:33:54.323Z,17.00
2022-09-28T08:36:22.367Z,16.40
2022-09-28T08:38:50.781Z,15.90
2022-09-28T08:41:31.245Z,15.30
2022-09-28T08:44:16.610Z,15.00
2022-09-28T08:46:49.364Z,15.50
2022-09-28T08:49:26.513Z,16.30
2022-09-28T08:52:01.090Z,17.70
2022-09-28T08:54:38.099Z,17.50
2022-09-28T08:57:13.653Z,18.10
2022-09-28T08:59:54.157Z,18.40
2022-09-28T09:02:28.579Z,19.50
2022-09-28T09:04:58.259Z,19.60
2022-09-28T09:08:14.088Z,18.10
2022-09-28T09:10:51.144Z,17.60
2022-09-28T09:13:42.976Z,16.50
2022-09-28T09:16:29.196Z,16.20
2022-09-28T09:19:10.440Z,16.20
2022-09-28T09:21:42.789Z,15.60
2022-09-28T09:24:27.199Z,14.90
2022-09-28T09:27:06.835Z,14.30
2022-09-28T09:29:55.136Z,14.10
2022-09-28T09:32:53.319Z,14.00
2022-09-28T09:35:40.376Z,13.90
2022-09-28T09:38:28.778Z,13.30
2022-09-28T09:41:15.424Z,13.40
2022-09-28T09:44:26.695Z,13.30
2022-09-28T09:47:06.150Z,13.40
2022-09-28T09:49:38.717Z,13.40
2022-09-28T09:52:18.735Z,13.20
2022-09-28T09:54:52.827Z,13.20
2022-09-28T09:57:26.854Z,13.30
2022-09-28T09:59:57.085Z,13.30
2022-09-28T10:02:29.162Z,13.80
2022-09-28T10:05:00.799Z,14.50
2022-09-28T10:07:37.757Z,15.80
2022-09-28T10:10:15.186Z,16.40
2022-09-28T10:12:43.376Z,16.40
2022-09-28T10:15:17.549Z,16.40
2022-09-28T10:17:46.926Z,16.20
2022-09-28T10:20:17.371Z,15.90
2022-09-28T10:22:45.751Z,14.80
2022-09-28T10:25:14.996Z,14.80
2022-09-28T10:27:46.465Z,14.80
2022-09-28T10:30:19.884Z,14.60
2022-09-28T10:32:51.274Z,14.50
2022-09-28T10:35:27.058Z,14.40
2022-09-28T10:37:59.182Z,14.50
2022-09-28T10:40:40.643Z,14.30
2022-09-28T10:43:22.986Z,14.20
2022-09-28T10:46:02.212Z,13.80
2022-09-28T10:48:40.049Z,13.70
2022-09-28T10:51:09.108Z,13.90
2022-09-28T10:53:39.978Z,14.10
2022-09-28T10:56:20.402Z,15.10
2022-09-28T10:58:48.413Z,16.00
2022-09-28T11:01:20.277Z,16.80
2022-09-28T11:03:58.186Z,16.50
2022-09-28T11:06:29.184Z,16.00
2022-09-28T11:09:00.877Z,15.70
2022-09-28T11:11:29.684Z,15.80
2022-09-28T11:14:01.610Z,15.80
2022-09-28T11:16:32.631Z,16.10
2022-09-28T11:19:07.786Z,16.10
2022-09-28T11:21:43.718Z,15.90
2022-09-28T11:24:23.513Z,16.30
2022-09-28T11:26:53.911Z,16.20
2022-09-28T11:29:27.568Z,16.20
2022-09-28T11:32:01.671Z,16.30
2022-09-28T11:34:54.899Z,16.00
2022-09-28T11:37:54.707Z,15.80
2022-09-28T11:40:32.097Z,15.30
2022-09-28T11:43:16.798Z,15.20
2022-09-28T11:45:57.359Z,15.10
2022-09-28T11:48:30.185Z,14.70
2022-09-28T11:51:07.290Z,14.70
2022-09-28T11:53:40.363Z,14.50
2022-09-28T11:56:21.382Z,14.30
2022-09-28T11:58:53.425Z,14.30
2022-09-28T12:01:30.030Z,14.20
2022-09-28T12:04:05.171Z,14.10
2022-09-28T12:06:41.663Z,14.10
2022-09-28T12:09:20.829Z,14.30
2022-09-28T12:11:53.091Z,14.40
2022-09-28T12:14:27.519Z,14.60
2022-09-28T12:17:08.065Z,14.80
2022-09-28T12:19:44.671Z,14.70
2022-09-28T12:22:22.053Z,14.70
2022-09-28T12:24:52.630Z,14.70
2022-09-28T12:27:26.932Z,14.70
2022-09-28T12:30:03.251Z,14.70
2022-09-28T12:32:39.395Z,14.60
2022-09-28T12:35:14.797Z,14.70
2022-09-28T12:38:01.921Z,14.30
2022-09-28T12:40:39.253Z,14.20
2022-09-28T12:43:40.499Z,14.30
2022-09-28T12:46:30.037Z,14.40
2022-09-28T12:52:28.132Z,14.50
2022-09-28T12:55:30.061Z,14.50
2022-09-28T12:58:09.769Z,14.50
2022-09-28T13:00:49.846Z,14.60
2022-09-28T13:03:58.804Z,14.40
2022-09-28T13:06:52.481Z,14.60
2022-09-28T13:09:23.906Z,15.00
2022-09-28T13:12:19.957Z,14.90
2022-09-28T13:15:15.352Z,14.80
2022-09-28T13:17:54.592Z,14.50
2022-09-28T13:20:36.006Z,14.90
2022-09-28T13:23:19.157Z,15.00
2022-09-28T13:25:55.497Z,14.90
2022-09-28T13:28:27.378Z,15.00
2022-09-28T13:33:34.899Z,14.70
2022-09-28T13:36:05.557Z,14.90
2022-09-28T13:38:52.123Z,14.90
2022-09-28T13:41:24.711Z,15.10
2022-09-28T13:44:36.505Z,15.40
2022-09-28T13:47:42.427Z,15.60
2022-09-28T13:50:29.051Z,15.80
2022-09-28T13:53:09.151Z,16.00
2022-09-28T13:55:54.033Z,16.00
2022-09-28T13:58:27.772Z,15.80
2022-09-28T14:01:05.100Z,15.90
2022-09-28T14:03:55.105Z,15.70
2022-09-28T14:06:27.252Z,15.70
2022-09-28T14:09:51.360Z,15.40
2022-09-28T14:12:51.660Z,15.50
2022-09-28T14:15:45.917Z,15.30
2022-09-28T14:18:28.626Z,15.30
2022-09-28T14:21:31.892Z,15.20
2022-09-28T14:24:17.482Z,15.20
2022-09-28T14:27:27.999Z,15.00
2022-09-28T14:30:17.039Z,14.80
2022-09-28T14:32:55.036Z,15.00
2022-09-28T14:35:32.411Z,14.90
2022-09-28T14:38:22.483Z,15.10
2022-09-28T14:41:12.879Z,15.20
2022-09-28T14:44:07.924Z,15.00
2022-09-28T14:46:44.670Z,15.10
2022-09-28T14:49:47.565Z,15.10
2022-09-28T14:52:46.556Z,15.30
2022-09-28T14:55:26.709Z,15.30
2022-09-28T14:58:00.146Z,15.20
2022-09-28T15:00:32.222Z,15.10
2022-09-28T15:03:11.438Z,14.90
2022-09-28T15:05:47.185Z,14.90
2022-09-28T15:08:18.356Z,15.00
2022-09-28T15:10:48.972Z,14.90
2022-09-28T15:13:24.997Z,15.10
2022-09-28T15:15:56.549Z,15.10
2022-09-28T15:19:15.606Z,15.30
2022-09-28T15:21:47.390Z,15.20
2022-09-28T15:24:32.590Z,14.90
2022-09-28T15:27:01.089Z,15.10
2022-09-28T15:29:31.651Z,15.10
2022-09-28T15:31:59.987Z,15.00
2022-09-28T15:34:48.125Z,14.60
2022-09-28T15:37:22.146Z,14.70
2022-09-28T15:39:53.568Z,14.60
2022-09-28T15:42:22.464Z,14.50
2022-09-28T15:45:15.626Z,14.60
2022-09-28T15:47:44.805Z,14.20
2022-09-28T15:50:23.814Z,14.40
2022-09-28T15:52:57.848Z,14.20
2022-09-28T15:55:31.270Z,14.20
2022-09-28T15:58:19.327Z,14.20
2022-09-28T16:00:49.295Z,14.00
2022-09-28T16:03:31.105Z,13.90
2022-09-28T16:06:08.828Z,14.10
2022-09-28T16:08:42.680Z,14.30
2022-09-28T16:11:19.319Z,14.20
2022-09-28T16:13:57.264Z,14.10
2022-09-28T16:16:33.263Z,14.20
2022-09-28T16:19:02.226Z,14.20
2022-09-28T16:21:44.908Z,14.00
2022-09-28T16:24:25.169Z,13.90
2022-09-28T16:27:01.143Z,13.90
2022-09-28T16:29:39.811Z,13.70
2022-09-28T16:32:38.292Z,13.70
2022-09-28T16:35:21.064Z,13.60
2022-09-28T16:37:56.342Z,13.50
2022-09-28T16:40:24.616Z,13.40
2022-09-28T16:43:00.896Z,13.20
2022-09-28T16:45:28.852Z,13.30
2022-09-28T16:47:58.305Z,13.30
2022-09-28T16:50:27.047Z,13.20
2022-09-28T16:53:19.722Z,13.10
2022-09-28T16:55:50.037Z,13.00
2022-09-28T16:58:19.549Z,12.90
2022-09-28T17:00:47.505Z,12.80
2022-09-28T17:03:18.953Z,12.80
2022-09-28T17:05:49.123Z,12.80
2022-09-28T17:08:19.192Z,12.70
2022-09-28T17:13:44.027Z,12.50
2022-09-28T17:16:14.770Z,12.40
2022-09-28T17:18:43.232Z,12.30
2022-09-28T17:21:15.639Z,12.30
2022-09-28T17:23:44.140Z,12.30
2022-09-28T17:26:20.642Z,12.20
2022-09-28T17:28:50.252Z,12.00
2022-09-28T17:31:18.316Z,12.00
2022-09-28T17:33:46.815Z,11.80
2022-09-28T17:36:17.832Z,11.90
2022-09-28T17:38:47.574Z,11.80
2022-09-28T17:41:20.681Z,11.90
2022-09-28T17:43:50.804Z,11.80
2022-09-28T17:46:28.805Z,11.80
2022-09-28T17:48:59.313Z,11.70
2022-09-28T17:51:28.843Z,11.50
2022-09-28T17:53:56.965Z,11.40
2022-09-28T17:56:29.658Z,11.40
2022-09-28T17:59:04.758Z,11.60
2022-09-28T18:01:34.984Z,11.70
2022-09-28T18:04:05.570Z,11.60
2022-09-28T18:06:34.300Z,11.50
2022-09-28T18:09:03.979Z,11.50
2022-09-28T18:11:33.268Z,11.40
2022-09-28T18:14:02.561Z,11.40
2022-09-28T18:16:30.983Z,11.30
2022-09-28T18:18:59.775Z,11.30
2022-09-28T18:21:27.791Z,11.30
2022-09-28T18:23:55.790Z,11.20
2022-09-28T18:26:23.758Z,11.30
2022-09-28T18:28:56.000Z,11.40
2022-09-28T18:31:25.663Z,11.40
2022-09-28T18:34:01.995Z,11.40
2022-09-28T18:36:30.635Z,11.40
2022-09-28T18:38:58.598Z,11.40
2022-09-28T18:41:30.014Z,11.50
2022-09-28T18:44:00.950Z,11.30
2022-09-28T18:46:36.267Z,11.30
2022-09-28T18:49:04.751Z,11.30
2022-09-28T18:51:32.913Z,11.40
2022-09-28T18:54:07.485Z,11.20
2022-09-28T18:56:37.927Z,11.20
2022-09-28T18:59:11.237Z,11.20
2022-09-28T19:01:43.343Z,11.30
2022-09-28T19:04:13.647Z,11.30
2022-09-28T19:06:44.341Z,11.10
2022-09-28T19:09:13.106Z,11.00
2022-09-28T19:11:41.618Z,11.10
2022-09-28T19:14:14.988Z,11.00
2022-09-28T19:16:45.746Z,11.00
2022-09-28T19:19:20.250Z,11.10
2022-09-28T19:21:48.656Z,11.00
2022-09-28T19:24:18.826Z,11.10
2022-09-28T19:26:47.360Z,11.00
2022-09-28T19:29:16.262Z,11.10
2022-09-28T19:31:46.575Z,11.20
2022-09-28T19:34:15.110Z,11.20
2022-09-28T19:36:43.470Z,11.20
2022-09-28T19:39:14.963Z,11.20
2022-09-28T19:41:49.384Z,11.10
2022-09-28T19:44:24.279Z,11.10
2022-09-28T19:46:55.226Z,10.70
2022-09-28T19:49:25.436Z,10.50
2022-09-28T19:52:13.795Z,10.50
2022-09-28T19:54:45.169Z,10.40
2022-09-28T19:57:15.849Z,10.30
2022-09-28T19:59:44.171Z,10.20
2022-09-28T20:02:15.799Z,10.20
2022-09-28T20:04:44.035Z,10.10
2022-09-28T20:07:12.110Z,10.00
2022-09-28T20:09:40.266Z,10.10
2022-09-28T20:12:09.201Z,10.00
2022-09-28T20:14:40.525Z,9.80
2022-09-28T20:17:08.843Z,9.80
2022-09-28T20:19:38.375Z,9.90
2022-09-28T20:22:06.502Z,10.00
2022-09-28T20:24:34.556Z,9.90
2022-09-28T20:27:02.778Z,9.80
2022-09-28T20:29:33.098Z,9.90
2022-09-28T20:32:01.936Z,9.90
2022-09-28T20:34:29.956Z,9.90
2022-09-28T20:36:59.271Z,9.90
2022-09-28T20:39:27.253Z,9.70
2022-09-28T20:41:55.984Z,9.70
2022-09-28T20:44:23.946Z,9.80
2022-09-28T20:46:52.488Z,9.80
2022-09-28T20:49:20.459Z,9.90
2022-09-28T20:51:48.464Z,9.60
2022-09-28T20:54:17.988Z,9.60
2022-09-28T20:56:48.045Z,9.60
2022-09-28T20:59:16.205Z,9.50
2022-09-28T21:01:44.423Z,9.30
2022-09-28T21:04:13.116Z,9.20
2022-09-28T21:06:43.293Z,9.10
2022-09-28T21:09:12.592Z,9.00
2022-09-28T21:11:41.935Z,9.00
2022-09-28T21:14:10.741Z,8.90
2022-09-28T21:16:39.718Z,8.80
2022-09-28T21:19:07.777Z,8.70
2022-09-28T21:21:36.100Z,8.80
2022-09-28T21:24:04.323Z,8.80
2022-09-28T21:26:33.034Z,8.70
2022-09-28T21:29:05.343Z,8.70
2022-09-28T21:31:39.693Z,8.70
2022-09-28T21:34:08.060Z,8.70
2022-09-28T21:36:35.974Z,8.80
2022-09-28T21:39:07.121Z,8.70
2022-09-28T21:41:38.299Z,8.70
2022-09-28T21:44:08.436Z,8.60
2022-09-28T21:46:37.461Z,8.40
2022-09-28T21:49:08.496Z,8.50
2022-09-28T21:51:37.923Z,8.70
2022-09-28T21:54:06.577Z,8.50
2022-09-28T21:56:34.655Z,8.40
2022-09-28T21:59:02.899Z,8.50
2022-09-28T22:01:32.234Z,8.40
2022-09-28T22:04:00.269Z,8.40
2022-09-28T22:06:28.947Z,8.30
2022-09-28T22:08:58.037Z,8.10
2022-09-28T22:11:28.919Z,8.00
2022-09-28T22:13:59.948Z,7.90
2022-09-28T22:16:32.170Z,7.70
2022-09-28T22:19:01.008Z,7.80
2022-09-28T22:21:32.601Z,7.70
2022-09-28T22:24:01.812Z,7.80
2022-09-28T22:26:31.618Z,7.90
2022-09-28T22:29:02.079Z,7.80
2022-09-28T22:31:35.465Z,7.80
2022-09-28T22:34:04.218Z,8.00
2022-09-28T22:36:32.616Z,8.10
2022-09-28T22:39:01.031Z,8.00
2022-09-28T22:41:29.926Z,7.90
2022-09-28T22:43:58.603Z,8.10
2022-09-28T22:46:28.529Z,8.10
2022-09-28T22:49:00.011Z,8.00
2022-09-28T22:51:30.159Z,7.90
2022-09-28T22:53:59.118Z,7.70
2022-09-28T22:56:27.450Z,7.60
2022-09-28T22:58:55.444Z,7.40
2022-09-28T23:01:25.242Z,7.40
2022-09-28T23:03:55.287Z,7.60
2022-09-28T23:06:27.733Z,7.70
2022-09-28T23:08:55.804Z,7.80
2022-09-28T23:11:24.313Z,7.80
2022-09-28T23:13:53.605Z,7.90
2022-09-28T23:16:23.499Z,8.00
2022-09-28T23:18:52.291Z,7.80
2022-09-28T23:21:22.444Z,7.60
2022-09-28T23:23:56.365Z,7.70
2022-09-28T23:26:27.594Z,7.80
2022-09-28T23:28:56.006Z,7.90
2022-09-28T23:31:26.486Z,7.80
2022-09-28T23:33:58.602Z,7.90
2022-09-28T23:36:27.020Z,7.90
2022-09-28T23:38:56.729Z,7.90
2022-09-28T23:41:24.826Z,7.90
2022-09-28T23:43:52.770Z,7.80
2022-09-28T23:46:21.429Z,7.70
2022-09-28T23:48:49.996Z,7.70
2022-09-28T23:51:18.267Z,7.70
2022-09-28T23:53:46.450Z,7.80
2022-09-28T23:56:15.832Z,7.80
2022-09-28T23:58:44.066Z,7.80
